sensor_id;sensor_type;location;lat;lon;timestamp;P1;durP1;ratioP1;P2;durP2;ratioP2
57667;SDS011;43499;52.366;12.912;2023-12-28T00:00:45;5.97;;;1.80;;
57667;SDS011;43499;52.366;12.912;2023-12-28T00:01:46;2.67;;;2.22;;
57667;SDS011;43499;52.366;12.912;2023-12-28T00:02:47;4.22;;;2.35;;
57667;SDS011;43499;52.366;12.912;2023-12-28T00:03:48;1.92;;;1.80;;
57667;SDS011;43499;52.366;12.912;2023-12-28T00:04:50;4.88;;;2.40;;
57667;SDS011;43499;52.366;12.912;2023-12-28T00:05:51;3.15;;;1.70;;
57667;SDS011;43499;52.366;12.912;2023-12-28T00:06:52;4.22;;;2.38;;
57667;SDS011;43499;52.366;12.912;2023-12-28T00:07:53;5.55;;;2.67;;
57667;SDS011;43499;52.366;12.912;2023-12-28T00:08:58;5.18;;;2.33;;
57667;SDS011;43499;52.366;12.912;2023-12-28T00:10:01;5.25;;;2.30;;
57667;SDS011;43499;52.366;12.912;2023-12-28T00:11:04;3.83;;;2.13;;
57667;SDS011;43499;52.366;12.912;2023-12-28T00:12:05;5.47;;;2.60;;
57667;SDS011;43499;52.366;12.912;2023-12-28T00:13:06;6.90;;;2.38;;
57667;SDS011;43499;52.366;12.912;2023-12-28T00:14:07;2.63;;;2.13;;
57667;SDS011;43499;52.366;12.912;2023-12-28T00:15:08;6.88;;;1.35;;
57667;SDS011;43499;52.366;12.912;2023-12-28T00:16:09;4.28;;;2.47;;
57667;SDS011;43499;52.366;12.912;2023-12-28T00:17:10;5.95;;;2.20;;
57667;SDS011;43499;52.366;12.912;2023-12-28T00:18:11;6.53;;;2.25;;
57667;SDS011;43499;52.366;12.912;2023-12-28T00:19:12;4.90;;;1.25;;
57667;SDS011;43499;52.366;12.912;2023-12-28T00:20:13;2.28;;;2.05;;
57667;SDS011;43499;52.366;12.912;2023-12-28T00:21:14;4.68;;;2.13;;
57667;SDS011;43499;52.366;12.912;2023-12-28T00:22:15;2.25;;;1.63;;
57667;SDS011;43499;52.366;12.912;2023-12-28T00:23:16;2.72;;;2.25;;
57667;SDS011;43499;52.366;12.912;2023-12-28T00:25:20;3.95;;;1.92;;
57667;SDS011;43499;52.366;12.912;2023-12-28T00:26:21;7.72;;;3.03;;
57667;SDS011;43499;52.366;12.912;2023-12-28T00:27:32;3.03;;;2.40;;
57667;SDS011;43499;52.366;12.912;2023-12-28T00:28:35;5.78;;;1.92;;
57667;SDS011;43499;52.366;12.912;2023-12-28T00:29:37;6.88;;;2.00;;
57667;SDS011;43499;52.366;12.912;2023-12-28T00:30:42;3.50;;;2.15;;
57667;SDS011;43499;52.366;12.912;2023-12-28T00:31:43;6.97;;;2.40;;
57667;SDS011;43499;52.366;12.912;2023-12-28T00:32:44;4.45;;;2.50;;
57667;SDS011;43499;52.366;12.912;2023-12-28T00:33:46;5.28;;;2.00;;
57667;SDS011;43499;52.366;12.912;2023-12-28T00:34:47;3.25;;;1.48;;
57667;SDS011;43499;52.366;12.912;2023-12-28T00:35:48;3.50;;;2.13;;
57667;SDS011;43499;52.366;12.912;2023-12-28T00:36:49;6.43;;;2.33;;
57667;SDS011;43499;52.366;12.912;2023-12-28T00:37:50;5.97;;;2.20;;
57667;SDS011;43499;52.366;12.912;2023-12-28T00:38:52;5.28;;;1.58;;
57667;SDS011;43499;52.366;12.912;2023-12-28T00:39:53;3.38;;;1.83;;
57667;SDS011;43499;52.366;12.912;2023-12-28T00:40:54;4.38;;;1.90;;
57667;SDS011;43499;52.366;12.912;2023-12-28T00:41:56;5.18;;;2.25;;
57667;SDS011;43499;52.366;12.912;2023-12-28T00:42:57;5.88;;;2.20;;
57667;SDS011;43499;52.366;12.912;2023-12-28T00:45:00;2.92;;;1.70;;
57667;SDS011;43499;52.366;12.912;2023-12-28T00:46:01;10.45;;;2.35;;
57667;SDS011;43499;52.366;12.912;2023-12-28T00:47:02;5.03;;;1.73;;
57667;SDS011;43499;52.366;12.912;2023-12-28T00:48:04;4.32;;;1.80;;
57667;SDS011;43499;52.366;12.912;2023-12-28T00:49:05;4.63;;;2.10;;
57667;SDS011;43499;52.366;12.912;2023-12-28T00:50:08;4.15;;;1.98;;
57667;SDS011;43499;52.366;12.912;2023-12-28T00:51:10;3.95;;;1.92;;
57667;SDS011;43499;52.366;12.912;2023-12-28T00:52:11;2.53;;;1.67;;
57667;SDS011;43499;52.366;12.912;2023-12-28T00:53:12;4.35;;;2.00;;
57667;SDS011;43499;52.366;12.912;2023-12-28T00:54:14;4.88;;;2.13;;
57667;SDS011;43499;52.366;12.912;2023-12-28T00:55:15;2.97;;;1.13;;
57667;SDS011;43499;52.366;12.912;2023-12-28T00:56:16;2.45;;;1.33;;
57667;SDS011;43499;52.366;12.912;2023-12-28T00:57:17;2.10;;;1.50;;
57667;SDS011;43499;52.366;12.912;2023-12-28T00:58:18;3.50;;;1.42;;
57667;SDS011;43499;52.366;12.912;2023-12-28T00:59:19;2.13;;;1.70;;
57667;SDS011;43499;52.366;12.912;2023-12-28T01:00:20;1.83;;;1.63;;
57667;SDS011;43499;52.366;12.912;2023-12-28T01:01:21;3.50;;;1.52;;
57667;SDS011;43499;52.366;12.912;2023-12-28T01:02:22;2.38;;;1.85;;
57667;SDS011;43499;52.366;12.912;2023-12-28T01:03:23;4.18;;;1.48;;
57667;SDS011;43499;52.366;12.912;2023-12-28T01:04:24;2.55;;;1.30;;
57667;SDS011;43499;52.366;12.912;2023-12-28T01:05:25;1.67;;;1.23;;
57667;SDS011;43499;52.366;12.912;2023-12-28T01:06:29;1.48;;;1.02;;
57667;SDS011;43499;52.366;12.912;2023-12-28T01:07:31;2.25;;;1.17;;
57667;SDS011;43499;52.366;12.912;2023-12-28T01:08:32;3.22;;;1.27;;
57667;SDS011;43499;52.366;12.912;2023-12-28T01:09:34;4.07;;;1.02;;
57667;SDS011;43499;52.366;12.912;2023-12-28T01:10:35;1.00;;;0.85;;
57667;SDS011;43499;52.366;12.912;2023-12-28T01:11:36;3.72;;;1.27;;
57667;SDS011;43499;52.366;12.912;2023-12-28T01:12:37;1.83;;;0.77;;
57667;SDS011;43499;52.366;12.912;2023-12-28T01:13:38;2.88;;;1.38;;
57667;SDS011;43499;52.366;12.912;2023-12-28T01:14:39;1.90;;;1.40;;
57667;SDS011;43499;52.366;12.912;2023-12-28T01:15:40;1.65;;;0.80;;
57667;SDS011;43499;52.366;12.912;2023-12-28T01:16:41;2.63;;;1.10;;
57667;SDS011;43499;52.366;12.912;2023-12-28T01:17:44;2.60;;;1.10;;
57667;SDS011;43499;52.366;12.912;2023-12-28T01:18:45;1.25;;;1.15;;
57667;SDS011;43499;52.366;12.912;2023-12-28T01:19:47;1.65;;;1.10;;
57667;SDS011;43499;52.366;12.912;2023-12-28T01:20:48;2.55;;;1.42;;
57667;SDS011;43499;52.366;12.912;2023-12-28T01:21:49;3.08;;;1.23;;
57667;SDS011;43499;52.366;12.912;2023-12-28T01:22:50;2.17;;;1.05;;
57667;SDS011;43499;52.366;12.912;2023-12-28T01:23:51;2.28;;;1.20;;
57667;SDS011;43499;52.366;12.912;2023-12-28T01:24:52;2.40;;;1.60;;
57667;SDS011;43499;52.366;12.912;2023-12-28T01:25:54;1.27;;;1.08;;
57667;SDS011;43499;52.366;12.912;2023-12-28T01:26:57;0.95;;;0.77;;
57667;SDS011;43499;52.366;12.912;2023-12-28T01:27:58;1.23;;;0.80;;
57667;SDS011;43499;52.366;12.912;2023-12-28T01:28:59;2.33;;;0.82;;
57667;SDS011;43499;52.366;12.912;2023-12-28T01:30:02;1.10;;;0.95;;
57667;SDS011;43499;52.366;12.912;2023-12-28T01:31:03;2.47;;;0.70;;
57667;SDS011;43499;52.366;12.912;2023-12-28T01:32:05;2.17;;;1.05;;
57667;SDS011;43499;52.366;12.912;2023-12-28T01:33:06;2.22;;;1.02;;
57667;SDS011;43499;52.366;12.912;2023-12-28T01:34:07;2.20;;;1.25;;
57667;SDS011;43499;52.366;12.912;2023-12-28T01:35:09;1.20;;;0.98;;
57667;SDS011;43499;52.366;12.912;2023-12-28T01:36:20;1.48;;;0.85;;
57667;SDS011;43499;52.366;12.912;2023-12-28T01:37:22;3.60;;;0.82;;
57667;SDS011;43499;52.366;12.912;2023-12-28T01:38:23;1.95;;;1.48;;
57667;SDS011;43499;52.366;12.912;2023-12-28T01:39:24;0.70;;;0.70;;
57667;SDS011;43499;52.366;12.912;2023-12-28T01:40:26;2.22;;;0.93;;
57667;SDS011;43499;52.366;12.912;2023-12-28T01:42:28;1.55;;;0.93;;
57667;SDS011;43499;52.366;12.912;2023-12-28T01:43:31;1.92;;;1.02;;
57667;SDS011;43499;52.366;12.912;2023-12-28T01:44:32;1.50;;;1.00;;
57667;SDS011;43499;52.366;12.912;2023-12-28T01:45:33;1.00;;;0.77;;
57667;SDS011;43499;52.366;12.912;2023-12-28T01:46:34;2.13;;;0.70;;
57667;SDS011;43499;52.366;12.912;2023-12-28T01:47:35;0.57;;;0.52;;
57667;SDS011;43499;52.366;12.912;2023-12-28T01:48:36;1.67;;;1.13;;
57667;SDS011;43499;52.366;12.912;2023-12-28T01:49:37;1.02;;;0.57;;
57667;SDS011;43499;52.366;12.912;2023-12-28T01:50:39;1.73;;;0.90;;
57667;SDS011;43499;52.366;12.912;2023-12-28T01:51:40;1.40;;;0.82;;
57667;SDS011;43499;52.366;12.912;2023-12-28T01:52:41;1.23;;;0.85;;
57667;SDS011;43499;52.366;12.912;2023-12-28T01:53:43;0.47;;;0.47;;
57667;SDS011;43499;52.366;12.912;2023-12-28T01:54:45;1.25;;;1.10;;
57667;SDS011;43499;52.366;12.912;2023-12-28T01:55:48;0.75;;;0.70;;
57667;SDS011;43499;52.366;12.912;2023-12-28T01:56:49;0.50;;;0.30;;
57667;SDS011;43499;52.366;12.912;2023-12-28T01:57:50;1.33;;;0.95;;
57667;SDS011;43499;52.366;12.912;2023-12-28T01:58:51;1.00;;;0.90;;
57667;SDS011;43499;52.366;12.912;2023-12-28T01:59:53;2.80;;;1.02;;
57667;SDS011;43499;52.366;12.912;2023-12-28T02:01:57;1.15;;;0.90;;
57667;SDS011;43499;52.366;12.912;2023-12-28T02:02:59;1.10;;;1.00;;
57667;SDS011;43499;52.366;12.912;2023-12-28T02:04:00;1.55;;;1.33;;
57667;SDS011;43499;52.366;12.912;2023-12-28T02:05:02;2.17;;;1.20;;
57667;SDS011;43499;52.366;12.912;2023-12-28T02:06:03;1.35;;;0.88;;
57667;SDS011;43499;52.366;12.912;2023-12-28T02:07:07;1.95;;;0.85;;
57667;SDS011;43499;52.366;12.912;2023-12-28T02:08:09;1.30;;;0.63;;
57667;SDS011;43499;52.366;12.912;2023-12-28T02:09:11;1.27;;;0.57;;
57667;SDS011;43499;52.366;12.912;2023-12-28T02:10:12;2.60;;;0.80;;
57667;SDS011;43499;52.366;12.912;2023-12-28T02:11:13;2.10;;;1.17;;
57667;SDS011;43499;52.366;12.912;2023-12-28T02:12:14;4.72;;;0.63;;
57667;SDS011;43499;52.366;12.912;2023-12-28T02:13:15;1.10;;;0.60;;
57667;SDS011;43499;52.366;12.912;2023-12-28T02:14:16;2.10;;;0.40;;
57667;SDS011;43499;52.366;12.912;2023-12-28T02:15:18;2.33;;;1.05;;
57667;SDS011;43499;52.366;12.912;2023-12-28T02:16:30;3.17;;;0.73;;
57667;SDS011;43499;52.366;12.912;2023-12-28T02:17:46;1.63;;;0.93;;
57667;SDS011;43499;52.366;12.912;2023-12-28T02:18:52;2.45;;;0.50;;
57667;SDS011;43499;52.366;12.912;2023-12-28T02:19:57;1.55;;;0.75;;
57667;SDS011;43499;52.366;12.912;2023-12-28T02:21:00;2.60;;;1.00;;
57667;SDS011;43499;52.366;12.912;2023-12-28T02:22:03;1.73;;;0.52;;
57667;SDS011;43499;52.366;12.912;2023-12-28T02:23:04;1.05;;;0.68;;
57667;SDS011;43499;52.366;12.912;2023-12-28T02:24:06;2.80;;;1.10;;
57667;SDS011;43499;52.366;12.912;2023-12-28T02:25:08;2.38;;;0.68;;
57667;SDS011;43499;52.366;12.912;2023-12-28T02:26:09;4.78;;;0.57;;
57667;SDS011;43499;52.366;12.912;2023-12-28T02:27:11;0.52;;;0.52;;
57667;SDS011;43499;52.366;12.912;2023-12-28T02:28:12;1.80;;;0.90;;
57667;SDS011;43499;52.366;12.912;2023-12-28T02:29:13;1.90;;;1.20;;
57667;SDS011;43499;52.366;12.912;2023-12-28T02:30:15;1.13;;;0.65;;
57667;SDS011;43499;52.366;12.912;2023-12-28T02:31:21;1.75;;;0.98;;
57667;SDS011;43499;52.366;12.912;2023-12-28T02:33:15;1.38;;;0.55;;
57667;SDS011;43499;52.366;12.912;2023-12-28T02:33:57;0.90;;;0.73;;
57667;SDS011;43499;52.366;12.912;2023-12-28T02:35:14;1.52;;;0.73;;
57667;SDS011;43499;52.366;12.912;2023-12-28T02:36:18;0.93;;;0.82;;
57667;SDS011;43499;52.366;12.912;2023-12-28T02:37:23;1.15;;;1.00;;
57667;SDS011;43499;52.366;12.912;2023-12-28T02:38:26;1.75;;;0.52;;
57667;SDS011;43499;52.366;12.912;2023-12-28T02:39:30;2.17;;;1.02;;
57667;SDS011;43499;52.366;12.912;2023-12-28T02:40:35;1.55;;;0.85;;
57667;SDS011;43499;52.366;12.912;2023-12-28T02:41:40;0.90;;;0.70;;
57667;SDS011;43499;52.366;12.912;2023-12-28T02:42:44;3.00;;;0.60;;
57667;SDS011;43499;52.366;12.912;2023-12-28T02:43:46;3.25;;;0.80;;
57667;SDS011;43499;52.366;12.912;2023-12-28T02:44:49;2.47;;;0.93;;
57667;SDS011;43499;52.366;12.912;2023-12-28T02:45:51;0.82;;;0.63;;
57667;SDS011;43499;52.366;12.912;2023-12-28T02:46:52;1.35;;;0.93;;
57667;SDS011;43499;52.366;12.912;2023-12-28T02:47:53;1.48;;;1.08;;
57667;SDS011;43499;52.366;12.912;2023-12-28T02:48:54;1.20;;;0.55;;
57667;SDS011;43499;52.366;12.912;2023-12-28T02:49:58;1.20;;;0.38;;
57667;SDS011;43499;52.366;12.912;2023-12-28T02:50:59;1.52;;;0.77;;
57667;SDS011;43499;52.366;12.912;2023-12-28T02:52:00;1.95;;;0.47;;
57667;SDS011;43499;52.366;12.912;2023-12-28T02:53:02;1.10;;;0.65;;
57667;SDS011;43499;52.366;12.912;2023-12-28T02:54:04;0.93;;;0.57;;
57667;SDS011;43499;52.366;12.912;2023-12-28T02:55:06;3.63;;;1.40;;
57667;SDS011;43499;52.366;12.912;2023-12-28T02:56:07;1.90;;;0.70;;
57667;SDS011;43499;52.366;12.912;2023-12-28T02:57:08;1.63;;;0.50;;
57667;SDS011;43499;52.366;12.912;2023-12-28T02:58:09;2.53;;;1.02;;
57667;SDS011;43499;52.366;12.912;2023-12-28T02:59:11;1.17;;;0.70;;
57667;SDS011;43499;52.366;12.912;2023-12-28T03:00:12;1.67;;;0.52;;
57667;SDS011;43499;52.366;12.912;2023-12-28T03:01:13;1.25;;;0.65;;
57667;SDS011;43499;52.366;12.912;2023-12-28T03:02:14;3.00;;;1.38;;
57667;SDS011;43499;52.366;12.912;2023-12-28T03:03:15;0.60;;;0.35;;
57667;SDS011;43499;52.366;12.912;2023-12-28T03:04:16;2.35;;;1.00;;
57667;SDS011;43499;52.366;12.912;2023-12-28T03:05:17;1.73;;;0.70;;
57667;SDS011;43499;52.366;12.912;2023-12-28T03:06:19;1.50;;;0.82;;
57667;SDS011;43499;52.366;12.912;2023-12-28T03:07:20;0.93;;;0.45;;
57667;SDS011;43499;52.366;12.912;2023-12-28T03:08:21;0.80;;;0.50;;
57667;SDS011;43499;52.366;12.912;2023-12-28T03:09:22;2.92;;;0.40;;
57667;SDS011;43499;52.366;12.912;2023-12-28T03:10:23;1.15;;;0.60;;
57667;SDS011;43499;52.366;12.912;2023-12-28T03:11:24;1.85;;;0.60;;
57667;SDS011;43499;52.366;12.912;2023-12-28T03:12:25;0.98;;;0.80;;
57667;SDS011;43499;52.366;12.912;2023-12-28T03:13:26;1.30;;;0.60;;
57667;SDS011;43499;52.366;12.912;2023-12-28T03:14:27;0.95;;;0.57;;
57667;SDS011;43499;52.366;12.912;2023-12-28T03:15:28;2.33;;;0.65;;
57667;SDS011;43499;52.366;12.912;2023-12-28T03:16:29;2.50;;;0.60;;
57667;SDS011;43499;52.366;12.912;2023-12-28T03:17:30;2.95;;;1.13;;
57667;SDS011;43499;52.366;12.912;2023-12-28T03:18:33;2.58;;;1.35;;
57667;SDS011;43499;52.366;12.912;2023-12-28T03:19:34;0.70;;;0.50;;
57667;SDS011;43499;52.366;12.912;2023-12-28T03:20:36;1.83;;;0.70;;
57667;SDS011;43499;52.366;12.912;2023-12-28T03:21:40;1.20;;;0.93;;
57667;SDS011;43499;52.366;12.912;2023-12-28T03:22:41;3.05;;;0.77;;
57667;SDS011;43499;52.366;12.912;2023-12-28T03:23:42;2.53;;;0.90;;
57667;SDS011;43499;52.366;12.912;2023-12-28T03:24:43;1.60;;;1.00;;
57667;SDS011;43499;52.366;12.912;2023-12-28T03:25:45;1.13;;;0.70;;
57667;SDS011;43499;52.366;12.912;2023-12-28T03:26:46;3.83;;;1.77;;
57667;SDS011;43499;52.366;12.912;2023-12-28T03:27:47;0.70;;;0.50;;
57667;SDS011;43499;52.366;12.912;2023-12-28T03:28:48;0.93;;;0.70;;
57667;SDS011;43499;52.366;12.912;2023-12-28T03:29:49;1.00;;;0.90;;
57667;SDS011;43499;52.366;12.912;2023-12-28T03:30:50;1.60;;;0.80;;
57667;SDS011;43499;52.366;12.912;2023-12-28T03:31:52;1.48;;;0.70;;
57667;SDS011;43499;52.366;12.912;2023-12-28T03:32:53;3.03;;;0.90;;
57667;SDS011;43499;52.366;12.912;2023-12-28T03:33:54;1.08;;;0.50;;
57667;SDS011;43499;52.366;12.912;2023-12-28T03:34:55;1.02;;;0.77;;
57667;SDS011;43499;52.366;12.912;2023-12-28T03:35:56;1.17;;;1.10;;
57667;SDS011;43499;52.366;12.912;2023-12-28T03:36:57;1.55;;;0.82;;
57667;SDS011;43499;52.366;12.912;2023-12-28T03:37:58;0.70;;;0.60;;
57667;SDS011;43499;52.366;12.912;2023-12-28T03:39:00;1.30;;;0.80;;
57667;SDS011;43499;52.366;12.912;2023-12-28T03:40:01;1.08;;;0.73;;
57667;SDS011;43499;52.366;12.912;2023-12-28T03:41:03;1.60;;;0.75;;
57667;SDS011;43499;52.366;12.912;2023-12-28T03:42:04;1.65;;;0.50;;
57667;SDS011;43499;52.366;12.912;2023-12-28T03:43:05;1.35;;;0.80;;
57667;SDS011;43499;52.366;12.912;2023-12-28T03:44:06;1.88;;;0.70;;
57667;SDS011;43499;52.366;12.912;2023-12-28T03:45:08;1.80;;;0.90;;
57667;SDS011;43499;52.366;12.912;2023-12-28T03:46:09;0.80;;;0.65;;
57667;SDS011;43499;52.366;12.912;2023-12-28T03:47:10;1.30;;;0.75;;
57667;SDS011;43499;52.366;12.912;2023-12-28T03:48:11;1.05;;;1.00;;
57667;SDS011;43499;52.366;12.912;2023-12-28T03:49:14;1.10;;;0.73;;
57667;SDS011;43499;52.366;12.912;2023-12-28T03:50:16;1.67;;;1.33;;
57667;SDS011;43499;52.366;12.912;2023-12-28T03:51:17;0.32;;;0.30;;
57667;SDS011;43499;52.366;12.912;2023-12-28T03:52:18;1.10;;;1.00;;
57667;SDS011;43499;52.366;12.912;2023-12-28T03:53:19;2.42;;;0.90;;
57667;SDS011;43499;52.366;12.912;2023-12-28T03:54:20;1.38;;;1.15;;
57667;SDS011;43499;52.366;12.912;2023-12-28T03:55:21;1.55;;;1.05;;
57667;SDS011;43499;52.366;12.912;2023-12-28T03:56:23;2.28;;;0.90;;
57667;SDS011;43499;52.366;12.912;2023-12-28T03:57:27;0.68;;;0.55;;
57667;SDS011;43499;52.366;12.912;2023-12-28T03:58:29;2.28;;;0.80;;
57667;SDS011;43499;52.366;12.912;2023-12-28T03:59:30;0.68;;;0.65;;
57667;SDS011;43499;52.366;12.912;2023-12-28T04:00:31;1.33;;;0.98;;
57667;SDS011;43499;52.366;12.912;2023-12-28T04:01:33;0.95;;;0.55;;
57667;SDS011;43499;52.366;12.912;2023-12-28T04:02:34;1.00;;;0.80;;
57667;SDS011;43499;52.366;12.912;2023-12-28T04:03:36;0.50;;;0.40;;
57667;SDS011;43499;52.366;12.912;2023-12-28T04:04:39;1.23;;;0.90;;
57667;SDS011;43499;52.366;12.912;2023-12-28T04:05:40;1.00;;;0.52;;
57667;SDS011;43499;52.366;12.912;2023-12-28T04:06:41;2.10;;;0.93;;
57667;SDS011;43499;52.366;12.912;2023-12-28T04:07:43;0.95;;;0.95;;
57667;SDS011;43499;52.366;12.912;2023-12-28T04:08:44;3.85;;;0.73;;
57667;SDS011;43499;52.366;12.912;2023-12-28T04:09:45;1.95;;;0.60;;
57667;SDS011;43499;52.366;12.912;2023-12-28T04:10:47;0.80;;;0.68;;
57667;SDS011;43499;52.366;12.912;2023-12-28T04:11:48;0.95;;;0.77;;
57667;SDS011;43499;52.366;12.912;2023-12-28T04:12:49;1.13;;;0.80;;
57667;SDS011;43499;52.366;12.912;2023-12-28T04:13:51;0.95;;;0.80;;
57667;SDS011;43499;52.366;12.912;2023-12-28T04:14:52;3.42;;;1.08;;
57667;SDS011;43499;52.366;12.912;2023-12-28T04:15:53;1.33;;;0.73;;
57667;SDS011;43499;52.366;12.912;2023-12-28T04:16:54;1.67;;;0.57;;
57667;SDS011;43499;52.366;12.912;2023-12-28T04:17:56;1.08;;;0.35;;
57667;SDS011;43499;52.366;12.912;2023-12-28T04:18:57;1.13;;;0.55;;
57667;SDS011;43499;52.366;12.912;2023-12-28T04:19:58;1.08;;;0.75;;
57667;SDS011;43499;52.366;12.912;2023-12-28T04:20:59;0.95;;;0.60;;
57667;SDS011;43499;52.366;12.912;2023-12-28T04:22:00;5.32;;;1.00;;
57667;SDS011;43499;52.366;12.912;2023-12-28T04:23:01;1.20;;;1.00;;
57667;SDS011;43499;52.366;12.912;2023-12-28T04:24:02;1.05;;;0.63;;
57667;SDS011;43499;52.366;12.912;2023-12-28T04:25:04;0.82;;;0.40;;
57667;SDS011;43499;52.366;12.912;2023-12-28T04:26:05;3.83;;;0.80;;
57667;SDS011;43499;52.366;12.912;2023-12-28T04:27:06;2.08;;;1.17;;
57667;SDS011;43499;52.366;12.912;2023-12-28T04:28:07;1.60;;;0.95;;
57667;SDS011;43499;52.366;12.912;2023-12-28T04:29:08;2.00;;;0.65;;
57667;SDS011;43499;52.366;12.912;2023-12-28T04:30:12;0.98;;;0.85;;
57667;SDS011;43499;52.366;12.912;2023-12-28T04:31:13;1.98;;;0.63;;
57667;SDS011;43499;52.366;12.912;2023-12-28T04:32:15;0.90;;;0.63;;
57667;SDS011;43499;52.366;12.912;2023-12-28T04:33:18;2.30;;;0.57;;
57667;SDS011;43499;52.366;12.912;2023-12-28T04:34:20;0.70;;;0.70;;
57667;SDS011;43499;52.366;12.912;2023-12-28T04:35:21;5.47;;;0.70;;
57667;SDS011;43499;52.366;12.912;2023-12-28T04:36:22;2.35;;;0.55;;
57667;SDS011;43499;52.366;12.912;2023-12-28T04:37:23;1.50;;;0.60;;
57667;SDS011;43499;52.366;12.912;2023-12-28T04:38:24;1.67;;;0.88;;
57667;SDS011;43499;52.366;12.912;2023-12-28T04:39:25;1.17;;;0.80;;
57667;SDS011;43499;52.366;12.912;2023-12-28T04:40:26;1.80;;;0.30;;
57667;SDS011;43499;52.366;12.912;2023-12-28T04:41:27;3.05;;;0.30;;
57667;SDS011;43499;52.366;12.912;2023-12-28T04:42:28;1.33;;;0.50;;
57667;SDS011;43499;52.366;12.912;2023-12-28T04:43:29;2.63;;;0.90;;
57667;SDS011;43499;52.366;12.912;2023-12-28T04:44:30;1.23;;;0.50;;
57667;SDS011;43499;52.366;12.912;2023-12-28T04:45:31;2.03;;;0.88;;
57667;SDS011;43499;52.366;12.912;2023-12-28T04:46:32;2.08;;;0.90;;
57667;SDS011;43499;52.366;12.912;2023-12-28T04:47:38;1.52;;;0.60;;
57667;SDS011;43499;52.366;12.912;2023-12-28T04:48:39;1.42;;;0.57;;
57667;SDS011;43499;52.366;12.912;2023-12-28T04:49:40;1.05;;;0.70;;
57667;SDS011;43499;52.366;12.912;2023-12-28T04:50:41;1.35;;;0.82;;
57667;SDS011;43499;52.366;12.912;2023-12-28T04:51:43;0.60;;;0.60;;
57667;SDS011;43499;52.366;12.912;2023-12-28T04:52:44;1.02;;;0.85;;
57667;SDS011;43499;52.366;12.912;2023-12-28T04:53:45;0.75;;;0.70;;
57667;SDS011;43499;52.366;12.912;2023-12-28T04:54:46;2.10;;;0.65;;
57667;SDS011;43499;52.366;12.912;2023-12-28T04:55:47;0.88;;;0.80;;
57667;SDS011;43499;52.366;12.912;2023-12-28T04:57:50;0.90;;;0.60;;
57667;SDS011;43499;52.366;12.912;2023-12-28T04:58:52;1.40;;;0.73;;
57667;SDS011;43499;52.366;12.912;2023-12-28T04:59:53;0.98;;;0.52;;
57667;SDS011;43499;52.366;12.912;2023-12-28T05:00:55;0.90;;;0.70;;
57667;SDS011;43499;52.366;12.912;2023-12-28T05:01:56;0.80;;;0.47;;
57667;SDS011;43499;52.366;12.912;2023-12-28T05:02:57;3.78;;;0.70;;
57667;SDS011;43499;52.366;12.912;2023-12-28T05:03:58;1.10;;;1.00;;
57667;SDS011;43499;52.366;12.912;2023-12-28T05:04:59;0.70;;;0.70;;
57667;SDS011;43499;52.366;12.912;2023-12-28T05:06:01;1.42;;;0.73;;
57667;SDS011;43499;52.366;12.912;2023-12-28T05:07:02;0.90;;;0.70;;
57667;SDS011;43499;52.366;12.912;2023-12-28T05:08:04;2.45;;;0.60;;
57667;SDS011;43499;52.366;12.912;2023-12-28T05:09:05;1.10;;;1.00;;
57667;SDS011;43499;52.366;12.912;2023-12-28T05:10:06;1.98;;;0.80;;
57667;SDS011;43499;52.366;12.912;2023-12-28T05:11:08;0.82;;;0.82;;
57667;SDS011;43499;52.366;12.912;2023-12-28T05:12:09;2.00;;;0.70;;
57667;SDS011;43499;52.366;12.912;2023-12-28T05:13:10;0.90;;;0.82;;
57667;SDS011;43499;52.366;12.912;2023-12-28T05:14:11;1.95;;;0.70;;
57667;SDS011;43499;52.366;12.912;2023-12-28T05:15:12;1.17;;;0.68;;
57667;SDS011;43499;52.366;12.912;2023-12-28T05:16:13;0.80;;;0.63;;
57667;SDS011;43499;52.366;12.912;2023-12-28T05:17:14;2.35;;;0.68;;
57667;SDS011;43499;52.366;12.912;2023-12-28T05:18:15;1.17;;;0.60;;
57667;SDS011;43499;52.366;12.912;2023-12-28T05:19:16;2.25;;;0.80;;
57667;SDS011;43499;52.366;12.912;2023-12-28T05:20:17;2.10;;;0.80;;
57667;SDS011;43499;52.366;12.912;2023-12-28T05:21:18;0.57;;;0.30;;
57667;SDS011;43499;52.366;12.912;2023-12-28T05:22:21;0.50;;;0.50;;
57667;SDS011;43499;52.366;12.912;2023-12-28T05:23:22;2.65;;;1.52;;
57667;SDS011;43499;52.366;12.912;2023-12-28T05:24:23;0.88;;;0.80;;
57667;SDS011;43499;52.366;12.912;2023-12-28T05:25:24;2.17;;;1.48;;
57667;SDS011;43499;52.366;12.912;2023-12-28T05:26:25;2.10;;;0.98;;
57667;SDS011;43499;52.366;12.912;2023-12-28T05:28:28;1.00;;;0.82;;
57667;SDS011;43499;52.366;12.912;2023-12-28T05:29:29;0.90;;;0.63;;
57667;SDS011;43499;52.366;12.912;2023-12-28T05:30:30;1.90;;;0.77;;
57667;SDS011;43499;52.366;12.912;2023-12-28T05:31:31;1.38;;;0.85;;
57667;SDS011;43499;52.366;12.912;2023-12-28T05:32:32;0.88;;;0.68;;
57667;SDS011;43499;52.366;12.912;2023-12-28T05:33:33;1.60;;;1.20;;
57667;SDS011;43499;52.366;12.912;2023-12-28T05:34:34;0.63;;;0.52;;
57667;SDS011;43499;52.366;12.912;2023-12-28T05:35:35;2.67;;;0.90;;
57667;SDS011;43499;52.366;12.912;2023-12-28T05:36:37;1.33;;;0.70;;
57667;SDS011;43499;52.366;12.912;2023-12-28T05:37:38;3.30;;;1.10;;
57667;SDS011;43499;52.366;12.912;2023-12-28T05:38:39;1.85;;;1.02;;
57667;SDS011;43499;52.366;12.912;2023-12-28T05:39:41;1.88;;;0.95;;
57667;SDS011;43499;52.366;12.912;2023-12-28T05:40:42;2.08;;;1.00;;
57667;SDS011;43499;52.366;12.912;2023-12-28T05:41:45;0.68;;;0.68;;
57667;SDS011;43499;52.366;12.912;2023-12-28T05:42:48;2.92;;;1.10;;
57667;SDS011;43499;52.366;12.912;2023-12-28T05:43:49;0.98;;;0.57;;
57667;SDS011;43499;52.366;12.912;2023-12-28T05:44:50;0.98;;;0.80;;
57667;SDS011;43499;52.366;12.912;2023-12-28T05:45:51;0.75;;;0.50;;
57667;SDS011;43499;52.366;12.912;2023-12-28T05:46:52;1.95;;;0.63;;
57667;SDS011;43499;52.366;12.912;2023-12-28T05:47:53;0.70;;;0.70;;
57667;SDS011;43499;52.366;12.912;2023-12-28T05:48:54;1.08;;;0.63;;
57667;SDS011;43499;52.366;12.912;2023-12-28T05:49:55;0.60;;;0.32;;
57667;SDS011;43499;52.366;12.912;2023-12-28T05:50:57;0.95;;;0.45;;
57667;SDS011;43499;52.366;12.912;2023-12-28T05:51:58;1.20;;;0.73;;
57667;SDS011;43499;52.366;12.912;2023-12-28T05:52:59;1.17;;;0.65;;
57667;SDS011;43499;52.366;12.912;2023-12-28T05:54:00;0.60;;;0.60;;
57667;SDS011;43499;52.366;12.912;2023-12-28T05:55:01;1.15;;;0.88;;
57667;SDS011;43499;52.366;12.912;2023-12-28T05:56:03;1.00;;;0.52;;
57667;SDS011;43499;52.366;12.912;2023-12-28T05:57:04;1.95;;;0.98;;
57667;SDS011;43499;52.366;12.912;2023-12-28T05:58:05;1.52;;;0.50;;
57667;SDS011;43499;52.366;12.912;2023-12-28T05:59:06;2.15;;;0.85;;
57667;SDS011;43499;52.366;12.912;2023-12-28T06:00:07;4.63;;;0.80;;
57667;SDS011;43499;52.366;12.912;2023-12-28T06:01:13;1.70;;;0.70;;
57667;SDS011;43499;52.366;12.912;2023-12-28T06:02:14;1.50;;;0.50;;
57667;SDS011;43499;52.366;12.912;2023-12-28T06:03:16;1.50;;;0.65;;
57667;SDS011;43499;52.366;12.912;2023-12-28T06:04:17;0.80;;;0.60;;
57667;SDS011;43499;52.366;12.912;2023-12-28T06:05:18;1.13;;;0.60;;
57667;SDS011;43499;52.366;12.912;2023-12-28T06:06:19;0.50;;;0.50;;
57667;SDS011;43499;52.366;12.912;2023-12-28T06:07:21;2.88;;;0.85;;
57667;SDS011;43499;52.366;12.912;2023-12-28T06:08:22;3.03;;;0.88;;
57667;SDS011;43499;52.366;12.912;2023-12-28T06:09:23;1.50;;;0.80;;
57667;SDS011;43499;52.366;12.912;2023-12-28T06:10:24;1.63;;;0.82;;
57667;SDS011;43499;52.366;12.912;2023-12-28T06:11:25;1.38;;;0.80;;
57667;SDS011;43499;52.366;12.912;2023-12-28T06:12:26;1.10;;;0.98;;